Obluc'E, Russia
Current Conditions -  °F | °C
As of 10:30 PM on Sunday 23 Nov 2014 (Local Time) from UHHH Reporting Station
Clear Clear  
Wind Chill:   Ceiling: Unl
Heat Index:   Visibility: 6mi
Dew Point:   Wind: 4mph
Humidity: 79%   Direction: 190°S
Pressure: 30.15"   Gusts: NA
Location:  49°N, 131.08°E
Report Text: UHHH 231430Z 19002MPS CAVOK M13/M16 Q1021 NOSIG RMK QFE759/1012238///50
Loading
Personal Weather Stations






























Interactive Weather Map New forecast layout! Learn more

10-Day Weather Forecast

Advertisements
Track Severe Weather on mobile